Grandview Heights, Ohio
Current Conditions -  °F | °C
As of 5:53 AM on Monday 22 Dec 2014 (Local Time) from KOSU Reporting Station
Haze Haze  
Wind Chill: 14°   Ceiling: Unl
Heat Index: 22°   Visibility: 5mi
Dew Point: 19°   Wind: 6mph
Humidity: 89%   Direction: 50°NE
Pressure: 30.05"   Gusts: NA
Location:  39.987°N, 83.0425°W
Report Text: KOSU 221053Z AUTO 05005KT 5SM BR CLR M06/M07 A3005 RMK AO2 SLP188 T10561072
Loading
Personal Weather Stations






























Interactive Weather Map New forecast layout! Learn more

10-Day Weather Forecast

Advertisements
Track Severe Weather on mobile